Time;durP1;ratioP1;P1;durP2;ratioP2;P2;SDS_P1;SDS_P2;PMS_P1;PMS_P2;Temp;Humidity;BMP_temperature;BMP_pressure;BME280_temperature;BME280_humidity;BME280_pressure;Samples;Min_cycle;Max_cycle;Signal;HPM_P1;HPM_P2
2021/12/09 00:01:43;;;;;;;11.55;2.28;;;;;;;;;;5028882;28;20056;-54
2021/12/09 00:04:13;;;;;;;7.72;2.47;;;;;;;;;;5047437;28;20071;-50
2021/12/09 00:06:41;;;;;;;6.40;2.58;;;;;;;;;;5041013;28;20056;-54
2021/12/09 00:09:09;;;;;;;7.43;2.55;;;;;;;;;;5050814;28;20521;-55
2021/12/09 00:11:43;;;;;;;7.10;2.50;;;;;;;;;;5047170;28;20072;-55
2021/12/09 00:14:11;;;;;;;6.03;2.22;;;;;;;;;;5046150;28;20056;-54
2021/12/09 00:16:37;;;;;;;9.13;2.47;;;;;;;;;;5050726;28;20537;-55
2021/12/09 00:19:04;;;;;;;6.70;2.47;;;;;;;;;;5051092;28;20053;-54
2021/12/09 00:21:30;;;;;;;6.10;2.45;;;;;;;;;;5063766;28;20045;-56
2021/12/09 00:23:57;;;;;;;8.13;2.10;;;;;;;;;;5066591;28;20061;-55
2021/12/09 00:26:23;;;;;;;5.78;2.17;;;;;;;;;;5062039;28;20142;-57
2021/12/09 00:28:51;;;;;;;5.78;2.25;;;;;;;;;;5067363;28;20078;-52
2021/12/09 00:31:18;;;;;;;7.95;2.17;;;;;;;;;;5068349;28;20139;-54
2021/12/09 00:33:48;;;;;;;7.22;2.65;;;;;;;;;;5063325;28;20040;-54
2021/12/09 00:36:17;;;;;;;5.88;2.15;;;;;;;;;;5067080;28;20040;-54
2021/12/09 00:38:44;;;;;;;9.55;3.22;;;;;;;;;;5063803;28;20047;-53
2021/12/09 00:41:11;;;;;;;7.50;3.42;;;;;;;;;;5067617;28;20127;-54
2021/12/09 00:43:39;;;;;;;15.40;3.70;;;;;;;;;;5063675;28;20079;-53
2021/12/09 00:46:09;;;;;;;9.27;3.13;;;;;;;;;;5067896;28;20060;-51
2021/12/09 00:48:36;;;;;;;7.93;3.50;;;;;;;;;;5063660;28;20159;-54
2021/12/09 00:51:03;;;;;;;10.07;3.28;;;;;;;;;;5067506;28;20056;-56
2021/12/09 00:53:30;;;;;;;10.63;2.67;;;;;;;;;;5063797;28;20288;-54
2021/12/09 00:55:58;;;;;;;8.82;2.92;;;;;;;;;;5067617;28;20140;-51
2021/12/09 00:58:24;;;;;;;10.63;3.17;;;;;;;;;;5063700;28;20060;-55
2021/12/09 01:00:51;;;;;;;6.38;2.85;;;;;;;;;;5068127;28;20144;-54
2021/12/09 01:03:19;;;;;;;8.43;2.90;;;;;;;;;;5063181;28;20062;-52
2021/12/09 01:05:46;;;;;;;7.53;2.78;;;;;;;;;;5056904;28;20052;-55
2021/12/09 01:08:13;;;;;;;7.25;2.63;;;;;;;;;;5066882;28;20121;-56
2021/12/09 01:10:40;;;;;;;9.60;3.03;;;;;;;;;;5070451;28;20581;-53
2021/12/09 01:13:07;;;;;;;8.88;2.90;;;;;;;;;;5067125;28;20459;-54
2021/12/09 01:15:38;;;;;;;11.30;3.08;;;;;;;;;;5069243;28;20056;-55
2021/12/09 01:18:04;;;;;;;7.55;2.75;;;;;;;;;;5069934;28;20056;-53
2021/12/09 01:20:32;;;;;;;8.45;2.75;;;;;;;;;;5067665;28;20060;-53
2021/12/09 01:22:59;;;;;;;6.77;2.30;;;;;;;;;;5070924;28;20048;-55
2021/12/09 01:25:27;;;;;;;7.80;2.40;;;;;;;;;;5065616;28;20055;-57
2021/12/09 01:27:56;;;;;;;12.77;2.50;;;;;;;;;;5069989;28;20111;-55
2021/12/09 01:30:23;;;;;;;9.15;2.80;;;;;;;;;;5065643;28;20074;-56
2021/12/09 01:32:52;;;;;;;11.98;2.88;;;;;;;;;;5059283;28;20116;-56
2021/12/09 01:35:21;;;;;;;8.73;3.17;;;;;;;;;;5056485;28;20105;-56
2021/12/09 01:37:54;;;;;;;8.88;2.60;;;;;;;;;;5069626;28;20051;-56
2021/12/09 01:40:20;;;;;;;8.30;2.65;;;;;;;;;;5055647;28;20052;-56
2021/12/09 01:42:47;;;;;;;7.72;2.17;;;;;;;;;;5058028;28;20114;-56
2021/12/09 01:45:35;;;;;;;7.00;2.15;;;;;;;;;;5045668;27;20162;-51
2021/12/09 01:48:02;;;;;;;7.57;2.35;;;;;;;;;;5059003;28;20078;-51
2021/12/09 01:50:28;;;;;;;11.45;2.55;;;;;;;;;;5059123;28;20048;-51
2021/12/09 01:52:55;;;;;;;9.40;2.80;;;;;;;;;;5063822;28;20163;-49
2021/12/09 01:55:21;;;;;;;4.60;2.20;;;;;;;;;;5054111;28;20077;-53
2021/12/09 01:57:49;;;;;;;8.52;2.15;;;;;;;;;;5059552;28;20448;-55
2021/12/09 02:00:17;;;;;;;7.45;2.30;;;;;;;;;;5056161;28;20049;-56
2021/12/09 02:02:45;;;;;;;5.88;2.03;;;;;;;;;;5043573;28;20148;-58
2021/12/09 02:05:13;;;;;;;9.00;2.10;;;;;;;;;;5039884;28;20079;-55
2021/12/09 02:07:40;;;;;;;5.95;2.30;;;;;;;;;;5061572;28;20072;-55
2021/12/09 02:10:08;;;;;;;4.82;1.90;;;;;;;;;;5062963;28;20139;-53
2021/12/09 02:12:35;;;;;;;10.32;1.88;;;;;;;;;;5020948;28;20045;-53
2021/12/09 02:15:02;;;;;;;7.32;1.80;;;;;;;;;;5041908;28;20487;-54
2021/12/09 02:17:28;;;;;;;11.05;2.50;;;;;;;;;;5022855;28;20416;-56
2021/12/09 02:19:58;;;;;;;8.85;2.17;;;;;;;;;;5043024;28;20063;-56
2021/12/09 02:22:28;;;;;;;5.15;2.15;;;;;;;;;;5037667;28;20049;-56
2021/12/09 02:24:56;;;;;;;7.38;2.50;;;;;;;;;;5042965;28;20055;-56
2021/12/09 02:27:23;;;;;;;;;;;;;;;;;;5041273;28;20474;-57
2021/12/09 02:29:51;;;;;;;6.63;2.40;;;;;;;;;;5062580;28;19925;-51
2021/12/09 02:32:17;;;;;;;7.88;2.45;;;;;;;;;;5048654;28;20049;-52
2021/12/09 02:34:44;;;;;;;7.50;2.42;;;;;;;;;;5062784;28;20132;-55
2021/12/09 02:37:13;;;;;;;5.85;2.17;;;;;;;;;;5052722;28;20136;-56
2021/12/09 02:39:41;;;;;;;7.35;2.03;;;;;;;;;;5042866;28;20133;-55
2021/12/09 02:42:08;;;;;;;6.85;2.17;;;;;;;;;;5038426;28;20136;-51
2021/12/09 02:44:36;;;;;;;8.70;2.60;;;;;;;;;;5042689;28;20073;-52
2021/12/09 02:47:03;;;;;;;;;;;;;;;;;;5039530;28;20491;-51
2021/12/09 02:49:30;;;;;;;5.18;1.95;;;;;;;;;;5042630;28;19929;-50
2021/12/09 02:51:58;;;;;;;6.35;2.10;;;;;;;;;;5039816;28;20053;-56
2021/12/09 02:54:25;;;;;;;6.13;1.83;;;;;;;;;;5043188;28;20067;-55
2021/12/09 02:56:57;;;;;;;8.25;1.92;;;;;;;;;;5029236;28;20308;-52
2021/12/09 02:59:24;;;;;;;5.80;2.25;;;;;;;;;;5024727;28;20087;-53
2021/12/09 03:01:57;;;;;;;6.43;1.83;;;;;;;;;;5028981;28;20146;-55
2021/12/09 03:04:37;;;;;;;5.80;2.13;;;;;;;;;;5025345;28;20057;-55
2021/12/09 03:07:04;;;;;;;9.73;2.25;;;;;;;;;;5050438;28;20056;-57
2021/12/09 03:09:30;;;;;;;9.07;2.40;;;;;;;;;;5040545;28;20111;-56
2021/12/09 03:12:04;;;;;;;7.53;1.80;;;;;;;;;;5047935;28;20106;-51
2021/12/09 03:14:31;;;;;;;6.40;2.15;;;;;;;;;;5025606;28;20061;-56
2021/12/09 03:16:57;;;;;;;7.07;2.25;;;;;;;;;;5045499;28;20049;-55
2021/12/09 03:19:23;;;;;;;6.78;1.88;;;;;;;;;;5024804;28;20069;-56
2021/12/09 03:21:50;;;;;;;5.50;2.30;;;;;;;;;;5028412;28;20054;-53
2021/12/09 03:24:18;;;;;;;7.75;2.28;;;;;;;;;;5016973;28;20057;-53
2021/12/09 03:26:46;;;;;;;9.25;2.28;;;;;;;;;;5048581;28;20072;-55
2021/12/09 03:29:16;;;;;;;5.85;2.47;;;;;;;;;;5036989;28;20053;-51
2021/12/09 03:31:43;;;;;;;5.55;2.33;;;;;;;;;;5044788;28;20049;-54
2021/12/09 03:34:10;;;;;;;13.15;2.25;;;;;;;;;;5024278;28;20085;-55
2021/12/09 03:36:36;;;;;;;6.72;2.22;;;;;;;;;;5028478;28;20057;-54
2021/12/09 03:39:05;;;;;;;3.97;1.80;;;;;;;;;;5026532;28;20064;-55
2021/12/09 03:41:31;;;;;;;6.63;2.35;;;;;;;;;;5047954;28;20057;-55
2021/12/09 03:43:58;;;;;;;8.05;1.80;;;;;;;;;;5044561;28;20049;-56
2021/12/09 03:46:26;;;;;;;3.88;1.63;;;;;;;;;;5026762;28;20057;-56
2021/12/09 03:48:53;;;;;;;7.18;2.22;;;;;;;;;;5027823;28;20111;-55
2021/12/09 03:51:19;;;;;;;5.30;1.80;;;;;;;;;;5041948;28;20072;-53
2021/12/09 03:53:45;;;;;;;6.70;2.15;;;;;;;;;;5047892;28;20055;-51
2021/12/09 03:56:12;;;;;;;7.05;2.17;;;;;;;;;;5059592;28;20053;-51
2021/12/09 03:58:39;;;;;;;4.60;1.60;;;;;;;;;;5048362;28;20053;-49
2021/12/09 04:01:05;;;;;;;4.97;1.70;;;;;;;;;;5031389;28;20049;-52
2021/12/09 04:03:33;;;;;;;4.53;1.83;;;;;;;;;;5027596;28;20053;-54
2021/12/09 04:06:00;;;;;;;3.90;1.87;;;;;;;;;;5030370;28;20499;-54
2021/12/09 04:08:26;;;;;;;3.60;1.30;;;;;;;;;;5026526;28;20057;-54
2021/12/09 04:10:53;;;;;;;5.40;1.85;;;;;;;;;;5024265;28;20049;-52
2021/12/09 04:13:20;;;;;;;9.60;2.00;;;;;;;;;;5062180;28;20668;-53
2021/12/09 04:15:47;;;;;;;10.65;2.05;;;;;;;;;;5038444;28;20346;-52
2021/12/09 04:18:13;;;;;;;6.43;2.30;;;;;;;;;;5046336;28;20079;-54
2021/12/09 04:20:41;;;;;;;7.30;1.98;;;;;;;;;;5041628;28;20896;-51
2021/12/09 04:23:08;;;;;;;7.22;2.00;;;;;;;;;;5027187;28;20050;-51
2021/12/09 04:25:38;;;;;;;6.07;2.17;;;;;;;;;;5024995;28;20053;-54
2021/12/09 04:28:05;;;;;;;7.15;2.30;;;;;;;;;;5007277;28;20082;-54
2021/12/09 04:30:32;;;;;;;7.20;2.03;;;;;;;;;;5010191;28;20110;-53
2021/12/09 04:32:59;;;;;;;10.95;2.05;;;;;;;;;;5023731;28;20045;-51
2021/12/09 04:35:26;;;;;;;6.60;1.80;;;;;;;;;;5027728;28;20080;-52
2021/12/09 04:37:54;;;;;;;6.88;1.90;;;;;;;;;;5023548;28;20050;-52
2021/12/09 04:40:20;;;;;;;6.60;1.67;;;;;;;;;;5044430;28;20068;-55
2021/12/09 04:42:47;;;;;;;8.15;2.50;;;;;;;;;;5039646;28;20050;-51
2021/12/09 04:45:13;;;;;;;5.78;2.10;;;;;;;;;;5026657;28;20058;-56
2021/12/09 04:47:41;;;;;;;5.82;2.22;;;;;;;;;;5023572;28;20194;-53
2021/12/09 04:50:08;;;;;;;7.15;1.85;;;;;;;;;;5043320;28;20049;-55
2021/12/09 04:52:34;;;;;;;7.45;2.05;;;;;;;;;;5040062;28;20099;-55
2021/12/09 04:55:03;;;;;;;6.88;1.70;;;;;;;;;;5026614;28;20063;-53
2021/12/09 04:57:29;;;;;;;;;;;;;;;;;;5023265;28;20077;-55
2021/12/09 04:59:56;;;;;;;7.80;1.85;;;;;;;;;;5026621;28;20015;-54
2021/12/09 05:02:29;;;;;;;6.15;2.28;;;;;;;;;;5033411;28;20084;-55
2021/12/09 05:04:55;;;;;;;9.13;1.90;;;;;;;;;;5027817;28;20400;-55
2021/12/09 05:07:22;;;;;;;8.57;2.25;;;;;;;;;;5023207;28;20058;-55
2021/12/09 05:09:51;;;;;;;12.27;2.85;;;;;;;;;;5026165;28;20073;-56
2021/12/09 05:12:21;;;;;;;5.88;1.83;;;;;;;;;;5031350;28;20202;-53
2021/12/09 05:14:48;;;;;;;6.43;1.95;;;;;;;;;;5024676;28;20049;-51
2021/12/09 05:17:15;;;;;;;5.03;1.73;;;;;;;;;;5026678;28;20058;-51
2021/12/09 05:19:42;;;;;;;5.82;1.63;;;;;;;;;;5022587;28;20057;-51
2021/12/09 05:22:08;;;;;;;5.85;1.63;;;;;;;;;;5026787;28;20057;-53
2021/12/09 05:24:36;;;;;;;8.35;1.88;;;;;;;;;;5022731;28;20080;-49
2021/12/09 05:27:03;;;;;;;5.75;1.70;;;;;;;;;;5026008;28;20065;-54
2021/12/09 05:29:37;;;;;;;5.80;1.60;;;;;;;;;;5022028;28;20064;-53
2021/12/09 05:32:10;;;;;;;4.35;1.48;;;;;;;;;;5042709;28;20050;-53
2021/12/09 05:34:38;;;;;;;10.52;1.83;;;;;;;;;;5039041;28;20061;-53
2021/12/09 05:37:06;;;;;;;4.57;1.80;;;;;;;;;;5026267;28;20054;-51
2021/12/09 05:39:33;;;;;;;4.95;1.75;;;;;;;;;;5022534;28;20053;-52
2021/12/09 05:41:59;;;;;;;6.75;1.77;;;;;;;;;;5026204;28;20103;-49
2021/12/09 05:44:26;;;;;;;4.03;1.80;;;;;;;;;;5022240;28;20466;-49
2021/12/09 05:46:54;;;;;;;4.90;1.88;;;;;;;;;;5026469;28;20057;-48
2021/12/09 05:49:21;;;;;;;5.22;1.75;;;;;;;;;;5022887;28;20072;-54
2021/12/09 05:51:47;;;;;;;5.90;2.13;;;;;;;;;;5027249;28;20049;-53
2021/12/09 05:54:15;;;;;;;6.32;2.00;;;;;;;;;;5040225;28;20248;-54
2021/12/09 05:56:41;;;;;;;4.43;1.85;;;;;;;;;;5028546;28;20092;-53
2021/12/09 05:59:08;;;;;;;5.07;1.80;;;;;;;;;;5026674;28;20059;-50
2021/12/09 06:01:34;;;;;;;10.00;1.85;;;;;;;;;;5023415;28;20477;-55
2021/12/09 06:04:03;;;;;;;3.42;1.67;;;;;;;;;;5025913;28;20057;-52
2021/12/09 06:06:29;;;;;;;4.28;1.77;;;;;;;;;;5020285;28;20152;-55
2021/12/09 06:08:56;;;;;;;7.68;1.80;;;;;;;;;;5025325;28;20057;-51
2021/12/09 06:11:22;;;;;;;7.28;1.27;;;;;;;;;;5021362;28;20107;-50
2021/12/09 06:13:49;;;;;;;3.35;1.48;;;;;;;;;;5028842;28;20049;-55
2021/12/09 06:16:17;;;;;;;7.40;1.75;;;;;;;;;;5023863;28;20073;-54
2021/12/09 06:18:44;;;;;;;8.07;1.70;;;;;;;;;;5026653;28;20153;-55
2021/12/09 06:21:12;;;;;;;11.75;1.67;;;;;;;;;;5022459;28;20395;-54
2021/12/09 06:23:38;;;;;;;6.50;1.48;;;;;;;;;;5027558;28;20050;-54
2021/12/09 06:26:06;;;;;;;4.88;1.48;;;;;;;;;;5022785;28;20147;-55
2021/12/09 06:28:33;;;;;;;6.68;1.50;;;;;;;;;;5027203;28;20138;-55
2021/12/09 06:31:00;;;;;;;4.72;1.55;;;;;;;;;;5023094;28;20053;-51
2021/12/09 06:33:26;;;;;;;10.98;1.63;;;;;;;;;;5029284;28;20064;-51
2021/12/09 06:35:53;;;;;;;8.50;1.88;;;;;;;;;;5026493;28;20057;-51
2021/12/09 06:38:20;;;;;;;5.10;1.70;;;;;;;;;;5029900;28;20077;-52
2021/12/09 06:40:47;;;;;;;4.10;1.63;;;;;;;;;;5027549;28;20049;-52
2021/12/09 06:43:14;;;;;;;5.63;1.25;;;;;;;;;;5028584;28;20426;-52
2021/12/09 06:45:42;;;;;;;4.10;1.52;;;;;;;;;;5030570;28;20045;-52
2021/12/09 06:48:08;;;;;;;8.77;1.73;;;;;;;;;;5026445;28;20080;-53
2021/12/09 06:50:35;;;;;;;5.90;1.40;;;;;;;;;;5033024;28;20049;-52
2021/12/09 06:53:02;;;;;;;6.97;1.63;;;;;;;;;;5026240;28;20111;-53
2021/12/09 06:55:29;;;;;;;6.60;1.70;;;;;;;;;;5032666;28;20081;-52
2021/12/09 06:57:56;;;;;;;7.30;2.40;;;;;;;;;;5030294;28;20108;-54
2021/12/09 07:00:24;;;;;;;9.75;1.75;;;;;;;;;;5028948;28;20466;-54
2021/12/09 07:02:52;;;;;;;5.45;1.85;;;;;;;;;;5024863;28;20053;-54
2021/12/09 07:05:21;;;;;;;5.25;1.90;;;;;;;;;;5028682;28;20096;-54
2021/12/09 07:07:48;;;;;;;5.47;2.25;;;;;;;;;;5025459;28;20045;-52
2021/12/09 07:10:14;;;;;;;5.25;1.60;;;;;;;;;;5029254;28;20061;-50
2021/12/09 07:12:42;;;;;;;5.53;1.90;;;;;;;;;;5027788;28;20040;-50
2021/12/09 07:15:11;;;;;;;4.53;1.50;;;;;;;;;;5028948;28;20060;-54
2021/12/09 07:17:37;;;;;;;5.60;1.55;;;;;;;;;;5026239;28;20144;-53
2021/12/09 07:20:04;;;;;;;5.20;1.80;;;;;;;;;;5030693;28;20063;-55
2021/12/09 07:22:31;;;;;;;3.25;1.30;;;;;;;;;;5026726;28;20125;-54
2021/12/09 07:25:00;;;;;;;5.45;2.08;;;;;;;;;;5027888;28;20064;-50
2021/12/09 07:27:26;;;;;;;;;;;;;;;;;;5029120;28;20060;-49
2021/12/09 07:29:55;;;;;;;7.55;1.90;;;;;;;;;;5041505;28;19978;-53
2021/12/09 07:32:21;;;;;;;;;;;;;;;;;;5044754;28;20068;-53
2021/12/09 07:34:48;;;;;;;3.90;1.40;;;;;;;;;;5024610;28;19961;-50
2021/12/09 07:37:14;;;;;;;5.65;1.77;;;;;;;;;;5028820;28;20084;-53
2021/12/09 07:39:41;;;;;;;6.65;1.42;;;;;;;;;;5024286;28;20077;-55
2021/12/09 07:42:08;;;;;;;6.53;1.80;;;;;;;;;;5044896;28;20144;-53
2021/12/09 07:44:35;;;;;;;7.15;2.05;;;;;;;;;;5039904;28;20065;-52
2021/12/09 07:47:04;;;;;;;5.18;1.50;;;;;;;;;;5027907;28;20100;-56
2021/12/09 07:49:30;;;;;;;6.22;1.90;;;;;;;;;;5024032;28;20099;-56
2021/12/09 07:51:56;;;;;;;3.65;1.38;;;;;;;;;;5027715;28;20120;-57
2021/12/09 07:54:23;;;;;;;10.15;1.60;;;;;;;;;;5023547;28;20057;-55
2021/12/09 07:56:50;;;;;;;3.55;1.23;;;;;;;;;;5041693;28;20121;-54
2021/12/09 07:59:17;;;;;;;4.22;1.35;;;;;;;;;;5023985;28;20053;-53
2021/12/09 08:01:43;;;;;;;6.85;1.60;;;;;;;;;;5027925;28;20466;-55
2021/12/09 08:04:11;;;;;;;8.32;1.60;;;;;;;;;;5023599;28;20050;-54
2021/12/09 08:06:38;;;;;;;13.63;1.98;;;;;;;;;;5027781;28;20144;-50
2021/12/09 08:09:06;;;;;;;5.68;1.65;;;;;;;;;;5028037;28;20045;-54
2021/12/09 08:11:33;;;;;;;9.23;2.47;;;;;;;;;;5023918;28;20140;-53
2021/12/09 08:14:07;;;;;;;6.45;1.83;;;;;;;;;;5027712;28;20136;-52
2021/12/09 08:16:37;;;;;;;6.82;1.77;;;;;;;;;;5023732;28;20159;-51
2021/12/09 08:19:04;;;;;;;8.63;1.77;;;;;;;;;;5027687;28;20060;-54
2021/12/09 08:21:33;;;;;;;6.85;2.17;;;;;;;;;;5023832;28;20563;-54
2021/12/09 08:24:00;;;;;;;5.38;1.67;;;;;;;;;;5026882;28;20140;-53
2021/12/09 08:26:27;;;;;;;8.63;2.67;;;;;;;;;;5023548;28;20155;-54
2021/12/09 08:28:53;;;;;;;7.35;2.10;;;;;;;;;;5027352;28;20096;-53
2021/12/09 08:31:20;;;;;;;4.75;2.10;;;;;;;;;;5023057;28;20557;-52
2021/12/09 08:33:47;;;;;;;6.68;2.22;;;;;;;;;;5026719;28;20451;-48
2021/12/09 08:36:15;;;;;;;5.03;1.85;;;;;;;;;;5022717;28;20057;-49
2021/12/09 08:38:43;;;;;;;6.28;1.60;;;;;;;;;;5027402;28;20060;-50
2021/12/09 08:41:09;;;;;;;3.47;1.70;;;;;;;;;;5023725;28;20131;-48
2021/12/09 08:43:37;;;;;;;6.05;2.58;;;;;;;;;;5045282;28;20104;-53
2021/12/09 08:46:09;;;;;;;6.97;2.27;;;;;;;;;;5042358;28;20761;-54
2021/12/09 08:48:35;;;;;;;7.63;2.40;;;;;;;;;;5044224;28;20069;-55
2021/12/09 08:51:02;;;;;;;7.43;1.40;;;;;;;;;;5040026;28;20061;-51
2021/12/09 08:53:28;;;;;;;7.97;2.58;;;;;;;;;;5026069;28;20144;-54
2021/12/09 08:55:56;;;;;;;8.93;2.35;;;;;;;;;;5026732;28;20115;-53
2021/12/09 08:58:23;;;;;;;8.20;2.33;;;;;;;;;;5022998;28;20152;-55
2021/12/09 09:00:53;;;;;;;7.60;2.60;;;;;;;;;;5026495;28;20049;-52
2021/12/09 09:03:20;;;;;;;5.22;2.35;;;;;;;;;;5022991;28;20103;-52
2021/12/09 09:05:47;;;;;;;4.53;1.80;;;;;;;;;;5026609;28;20053;-55
2021/12/09 09:08:14;;;;;;;6.70;2.08;;;;;;;;;;5022835;28;20072;-56
2021/12/09 09:10:41;;;;;;;12.02;2.75;;;;;;;;;;5042860;28;20136;-54
2021/12/09 09:13:09;;;;;;;9.10;2.67;;;;;;;;;;5038765;28;20045;-53
2021/12/09 09:15:36;;;;;;;5.57;1.95;;;;;;;;;;5026249;28;20084;-51
2021/12/09 09:18:03;;;;;;;5.65;1.92;;;;;;;;;;5022853;28;20079;-49
2021/12/09 09:20:31;;;;;;;7.55;2.40;;;;;;;;;;5041145;28;20095;-55
2021/12/09 09:22:58;;;;;;;11.30;2.45;;;;;;;;;;5023282;28;20096;-54
2021/12/09 09:25:29;;;;;;;7.18;2.10;;;;;;;;;;5025994;28;20136;-54
2021/12/09 09:27:56;;;;;;;5.75;1.67;;;;;;;;;;5022500;28;20487;-53
2021/12/09 09:30:27;;;;;;;10.80;2.20;;;;;;;;;;5026161;28;20076;-55
2021/12/09 09:32:53;;;;;;;4.78;1.90;;;;;;;;;;5021993;28;20049;-54
2021/12/09 09:35:20;;;;;;;5.80;1.73;;;;;;;;;;5025067;28;20152;-52
2021/12/09 09:37:47;;;;;;;5.95;2.15;;;;;;;;;;5023251;28;20079;-53
2021/12/09 09:40:15;;;;;;;5.43;1.70;;;;;;;;;;5026576;28;20115;-51
2021/12/09 09:42:59;;;;;;;5.07;1.63;;;;;;;;;;5025598;28;20053;-53
2021/12/09 09:45:28;;;;;;;6.97;2.15;;;;;;;;;;5025043;28;20092;-50
2021/12/09 09:47:56;;;;;;;5.57;2.15;;;;;;;;;;5025879;28;20083;-54
2021/12/09 09:50:22;;;;;;;6.95;2.42;;;;;;;;;;5022395;28;20049;-52
2021/12/09 09:52:51;;;;;;;5.88;2.03;;;;;;;;;;5025804;28;20049;-54
2021/12/09 09:55:21;;;;;;;6.68;2.67;;;;;;;;;;5022087;28;20626;-52
2021/12/09 09:57:49;;;;;;;4.13;1.55;;;;;;;;;;5025812;28;20107;-51
2021/12/09 10:00:17;;;;;;;4.13;1.60;;;;;;;;;;5022376;28;20128;-53
2021/12/09 10:02:51;;;;;;;10.43;2.72;;;;;;;;;;5042954;28;20057;-52
2021/12/09 10:05:22;;;;;;;12.00;2.60;;;;;;;;;;5040057;28;20131;-50
2021/12/09 10:07:49;;;;;;;6.57;2.38;;;;;;;;;;5048587;28;20060;-52
2021/12/09 10:10:16;;;;;;;7.80;2.05;;;;;;;;;;5045243;28;20076;-53
2021/12/09 10:12:54;;;;;;;5.78;1.77;;;;;;;;;;5038591;28;20056;-53
2021/12/09 10:15:32;;;;;;;5.30;2.03;;;;;;;;;;5035037;28;20049;-52
2021/12/09 10:18:00;;;;;;;12.20;1.93;;;;;;;;;;5030051;28;20058;-54
2021/12/09 10:20:41;;;;;;;7.63;1.98;;;;;;;;;;5025317;28;20414;-51
2021/12/09 10:23:21;;;;;;;10.85;2.17;;;;;;;;;;5029814;28;20055;-52
2021/12/09 10:26:09;;;;;;;5.10;2.25;;;;;;;;;;5024232;28;20107;-52
2021/12/09 10:28:36;;;;;;;6.47;1.95;;;;;;;;;;5029920;28;20168;-51
2021/12/09 10:31:09;;;;;;;6.07;1.90;;;;;;;;;;5025958;28;20061;-56
2021/12/09 10:33:57;;;;;;;4.68;1.70;;;;;;;;;;5044940;28;20064;-53
2021/12/09 10:36:40;;;;;;;8.32;2.13;;;;;;;;;;5025821;28;20061;-55
2021/12/09 10:39:18;;;;;;;7.00;2.67;;;;;;;;;;5031694;28;20050;-53
2021/12/09 10:41:44;;;;;;;8.45;1.90;;;;;;;;;;5019469;28;20054;-52
2021/12/09 10:44:11;;;;;;;11.73;3.08;;;;;;;;;;5028531;28;20124;-51
2021/12/09 10:46:50;;;;;;;8.38;2.78;;;;;;;;;;5025394;28;20057;-52
2021/12/09 10:49:18;;;;;;;6.13;2.03;;;;;;;;;;5029092;28;20076;-53
2021/12/09 10:51:55;;;;;;;7.93;2.40;;;;;;;;;;5025388;28;20049;-54
2021/12/09 10:54:32;;;;;;;14.43;2.97;;;;;;;;;;5028026;28;20079;-54
2021/12/09 10:57:14;;;;;;;3.60;1.73;;;;;;;;;;5023836;28;20104;-52
2021/12/09 10:59:41;;;;;;;8.15;2.67;;;;;;;;;;5027169;28;20053;-54
2021/12/09 11:02:07;;;;;;;10.25;3.00;;;;;;;;;;5025698;28;20228;-54
2021/12/09 11:04:34;;;;;;;6.15;2.05;;;;;;;;;;5029093;28;20045;-54
2021/12/09 11:07:18;;;;;;;11.25;3.65;;;;;;;;;;5025074;28;20049;-51
2021/12/09 11:09:47;;;;;;;11.52;3.80;;;;;;;;;;5045111;28;20133;-54
2021/12/09 11:12:26;;;;;;;7.90;3.22;;;;;;;;;;5042007;28;20042;-55
2021/12/09 11:14:59;;;;;;;13.77;3.33;;;;;;;;;;5024511;28;20050;-51
2021/12/09 11:17:33;;;;;;;7.38;2.80;;;;;;;;;;5024652;28;20057;-53
2021/12/09 11:20:00;;;;;;;11.70;2.83;;;;;;;;;;5028720;28;20061;-53
2021/12/09 11:22:31;;;;;;;12.25;3.15;;;;;;;;;;5041779;28;20057;-53
2021/12/09 11:25:03;;;;;;;9.13;3.10;;;;;;;;;;5045199;28;20084;-52
2021/12/09 11:27:30;;;;;;;13.07;2.95;;;;;;;;;;5042008;28;20061;-52
2021/12/09 11:30:08;;;;;;;11.85;3.47;;;;;;;;;;5029154;28;20053;-54
2021/12/09 11:32:41;;;;;;;8.80;3.03;;;;;;;;;;5026742;28;20107;-52
2021/12/09 11:35:14;;;;;;;8.77;3.13;;;;;;;;;;5046818;28;20053;-52
2021/12/09 11:37:45;;;;;;;5.82;2.20;;;;;;;;;;5023985;28;20056;-56
2021/12/09 11:40:18;;;;;;;14.23;3.15;;;;;;;;;;5020626;28;20053;-54
2021/12/09 11:42:49;;;;;;;11.40;3.50;;;;;;;;;;5018729;28;20058;-55
2021/12/09 11:45:18;;;;;;;8.18;2.92;;;;;;;;;;5027271;28;20089;-54
2021/12/09 11:47:48;;;;;;;10.45;3.97;;;;;;;;;;5026165;28;20057;-53
2021/12/09 11:50:15;;;;;;;7.75;2.70;;;;;;;;;;5027811;28;20049;-56
2021/12/09 11:52:43;;;;;;;5.15;1.98;;;;;;;;;;5044660;28;20049;-55
2021/12/09 11:55:12;;;;;;;10.35;3.60;;;;;;;;;;5040379;28;20060;-54
2021/12/09 11:57:41;;;;;;;;;;;;;;;;;;5027073;28;20064;-51
2021/12/09 12:11:55;;;;;;;7.35;2.67;;;;;;;;;;5029386;28;20056;-52
2021/12/09 12:14:29;;;;;;;10.80;2.90;;;;;;;;;;5038112;28;20092;-51
2021/12/09 12:17:08;;;;;;;14.07;3.83;;;;;;;;;;5025833;28;20286;-51
2021/12/09 12:19:54;;;;;;;12.35;3.45;;;;;;;;;;5023141;28;20076;-54
2021/12/09 12:22:44;;;;;;;6.00;2.83;;;;;;;;;;5033424;28;20140;-55
2021/12/09 12:25:32;;;;;;;9.63;3.25;;;;;;;;;;5012550;28;20149;-53
2021/12/09 12:28:19;;;;;;;10.40;2.88;;;;;;;;;;5043976;28;20061;-52
2021/12/09 12:33:55;;;;;;;10.07;3.67;;;;;;;;;;5026792;28;20080;-55
2021/12/09 12:37:02;;;;;;;6.93;3.13;;;;;;;;;;5021794;28;20072;-53
2021/12/09 12:39:48;;;;;;;8.60;3.33;;;;;;;;;;5026759;28;20111;-54
2021/12/09 12:42:20;;;;;;;7.55;2.83;;;;;;;;;;5026289;28;20060;-54
2021/12/09 12:45:03;;;;;;;11.70;3.00;;;;;;;;;;5027060;28;20131;-53
2021/12/09 12:47:38;;;;;;;9.82;3.50;;;;;;;;;;5026618;28;20144;-51
2021/12/09 12:50:08;;;;;;;7.95;3.00;;;;;;;;;;5027351;28;20049;-51
2021/12/09 12:52:35;;;;;;;9.88;3.90;;;;;;;;;;5042238;28;20156;-54
2021/12/09 12:55:12;;;;;;;10.85;3.45;;;;;;;;;;5044630;28;20164;-56
2021/12/09 12:57:41;;;;;;;13.07;4.60;;;;;;;;;;5040986;28;20049;-55
2021/12/09 13:00:07;;;;;;;;;;;;;;;;;;5045829;28;20060;-55
2021/12/09 13:05:26;;;;;;;6.05;2.78;;;;;;;;;;5025012;28;20108;-55
2021/12/09 13:13:50;;;;;;;9.23;3.30;;;;;;;;;;5037147;28;20071;-52
2021/12/09 13:16:21;;;;;;;7.95;3.67;;;;;;;;;;5041719;28;20053;-53
2021/12/09 13:19:00;;;;;;;17.13;3.85;;;;;;;;;;5026946;28;20076;-53
2021/12/09 13:21:47;;;;;;;14.13;3.60;;;;;;;;;;5023586;28;20053;-54
2021/12/09 13:24:37;;;;;;;16.40;3.88;;;;;;;;;;5022781;28;20053;-52
2021/12/09 13:27:13;;;;;;;8.38;3.92;;;;;;;;;;5021299;28;20099;-56
2021/12/09 13:29:48;;;;;;;10.20;3.75;;;;;;;;;;5026285;28;20080;-52
2021/12/09 13:32:41;;;;;;;10.68;3.53;;;;;;;;;;5023104;28;20057;-50
2021/12/09 13:35:13;;;;;;;8.77;2.88;;;;;;;;;;5026235;28;20160;-52
2021/12/09 13:38:04;;;;;;;8.13;3.85;;;;;;;;;;5022528;28;20070;-51
2021/12/09 13:45:47;;;;;;;9.82;3.90;;;;;;;;;;5025769;28;20053;-54
2021/12/09 13:46:25;;;;;;;8.10;3.85;;;;;;;;;;5026281;28;20069;-51
2021/12/09 13:49:00;;;;;;;12.55;4.05;;;;;;;;;;5021576;28;20057;-52
2021/12/09 13:51:51;;;;;;;9.90;4.13;;;;;;;;;;5026698;28;20050;-51
2021/12/09 13:54:19;;;;;;;8.50;3.92;;;;;;;;;;5022398;28;20049;-53
2021/12/09 13:56:47;;;;;;;6.88;2.80;;;;;;;;;;5026111;28;20068;-54
2021/12/09 13:59:18;;;;;;;8.88;3.30;;;;;;;;;;5038281;28;20140;-51
2021/12/09 14:01:46;;;;;;;5.18;2.47;;;;;;;;;;5025953;28;20096;-52
2021/12/09 14:04:13;;;;;;;7.68;2.50;;;;;;;;;;5022045;28;20057;-52
2021/12/09 14:06:46;;;;;;;7.78;3.22;;;;;;;;;;5026448;28;20061;-55
2021/12/09 14:09:12;;;;;;;12.27;4.55;;;;;;;;;;5022623;28;20057;-55
2021/12/09 14:11:46;;;;;;;10.82;4.47;;;;;;;;;;5026148;28;20057;-53
2021/12/09 14:14:19;;;;;;;11.75;4.50;;;;;;;;;;5022719;28;20060;-54
2021/12/09 14:16:52;;;;;;;10.00;4.90;;;;;;;;;;5026143;28;20141;-51
2021/12/09 14:22:07;;;;;;;11.20;5.15;;;;;;;;;;5027932;28;20188;-54
2021/12/09 14:24:37;;;;;;;11.10;4.10;;;;;;;;;;5041099;28;20060;-53
2021/12/09 14:27:05;;;;;;;22.75;5.55;;;;;;;;;;5027168;28;20060;-60
2021/12/09 14:29:33;;;;;;;8.40;3.13;;;;;;;;;;5021785;28;20107;-55
2021/12/09 14:32:02;;;;;;;6.80;2.85;;;;;;;;;;5036437;28;20053;-55
2021/12/09 14:34:29;;;;;;;10.50;4.07;;;;;;;;;;5015214;28;20077;-54
2021/12/09 14:36:58;;;;;;;8.82;3.25;;;;;;;;;;5025768;28;20132;-57
2021/12/09 14:39:25;;;;;;;12.20;4.05;;;;;;;;;;5023286;28;20054;-55
2021/12/09 14:42:03;;;;;;;10.75;4.70;;;;;;;;;;5024762;28;20081;-54
2021/12/09 14:44:30;;;;;;;10.75;4.18;;;;;;;;;;5023977;28;20116;-57
2021/12/09 14:47:04;;;;;;;8.02;3.75;;;;;;;;;;5021385;28;20049;-53
2021/12/09 14:49:34;;;;;;;15.68;5.53;;;;;;;;;;5025633;28;20053;-54
2021/12/09 14:52:02;;;;;;;11.88;5.47;;;;;;;;;;5023052;28;20127;-55
2021/12/09 14:54:29;;;;;;;10.95;5.15;;;;;;;;;;5045757;28;20115;-55
2021/12/09 14:57:03;;;;;;;11.57;3.92;;;;;;;;;;5041936;28;20080;-54
2021/12/09 14:59:31;;;;;;;9.32;4.32;;;;;;;;;;5045632;28;20077;-53
2021/12/09 15:02:05;;;;;;;11.77;3.67;;;;;;;;;;5041480;28;20056;-54
2021/12/09 15:04:37;;;;;;;10.07;4.13;;;;;;;;;;5028595;28;20081;-53
2021/12/09 15:07:05;;;;;;;6.80;3.40;;;;;;;;;;5025021;28;20073;-54
2021/12/09 15:09:32;;;;;;;14.57;5.50;;;;;;;;;;5044563;28;20112;-55
2021/12/09 15:12:00;;;;;;;9.52;4.43;;;;;;;;;;5024980;28;20057;-55
2021/12/09 15:14:28;;;;;;;11.80;4.82;;;;;;;;;;5028630;28;20050;-54
2021/12/09 15:17:20;;;;;;;9.27;3.78;;;;;;;;;;5025945;28;20061;-50
2021/12/09 15:20:00;;;;;;;9.32;3.50;;;;;;;;;;5019794;28;20049;-51
2021/12/09 15:22:38;;;;;;;9.63;4.72;;;;;;;;;;5024543;28;20049;-55
2021/12/09 15:25:06;;;;;;;12.30;4.22;;;;;;;;;;5028650;28;20061;-55
2021/12/09 15:27:49;;;;;;;10.95;4.88;;;;;;;;;;5024811;28;20139;-53